sensor_id;sensor_type;location;lat;lon;timestamp;P1;durP1;ratioP1;P2;durP2;ratioP2
10090;SDS011;5084;51.386;6.778;2023-02-01T00:02:10;13.90;;;5.33;;
10090;SDS011;5084;51.386;6.778;2023-02-01T00:04:36;12.03;;;5.73;;
10090;SDS011;5084;51.386;6.778;2023-02-01T00:07:03;11.40;;;5.50;;
10090;SDS011;5084;51.386;6.778;2023-02-01T00:09:29;9.80;;;5.53;;
10090;SDS011;5084;51.386;6.778;2023-02-01T00:11:55;12.80;;;6.63;;
10090;SDS011;5084;51.386;6.778;2023-02-01T00:14:24;11.77;;;5.37;;
10090;SDS011;5084;51.386;6.778;2023-02-01T00:16:50;6.43;;;5.00;;
10090;SDS011;5084;51.386;6.778;2023-02-01T00:19:16;11.03;;;5.90;;
10090;SDS011;5084;51.386;6.778;2023-02-01T00:21:42;11.73;;;5.93;;
10090;SDS011;5084;51.386;6.778;2023-02-01T00:24:09;11.20;;;5.30;;
10090;SDS011;5084;51.386;6.778;2023-02-01T00:26:37;7.93;;;5.30;;
10090;SDS011;5084;51.386;6.778;2023-02-01T00:29:05;7.80;;;5.30;;
10090;SDS011;5084;51.386;6.778;2023-02-01T00:31:32;7.47;;;4.63;;
10090;SDS011;5084;51.386;6.778;2023-02-01T00:33:58;9.90;;;5.50;;
10090;SDS011;5084;51.386;6.778;2023-02-01T00:36:24;8.60;;;5.07;;
10090;SDS011;5084;51.386;6.778;2023-02-01T00:38:50;9.53;;;5.27;;
10090;SDS011;5084;51.386;6.778;2023-02-01T00:41:17;8.37;;;4.90;;
10090;SDS011;5084;51.386;6.778;2023-02-01T00:43:44;6.87;;;4.80;;
10090;SDS011;5084;51.386;6.778;2023-02-01T00:46:10;12.63;;;5.00;;
10090;SDS011;5084;51.386;6.778;2023-02-01T00:48:36;10.50;;;5.30;;
10090;SDS011;5084;51.386;6.778;2023-02-01T00:51:04;11.63;;;5.83;;
10090;SDS011;5084;51.386;6.778;2023-02-01T00:53:30;11.53;;;5.97;;
10090;SDS011;5084;51.386;6.778;2023-02-01T00:55:56;10.20;;;6.13;;
10090;SDS011;5084;51.386;6.778;2023-02-01T00:58:23;9.47;;;5.83;;
10090;SDS011;5084;51.386;6.778;2023-02-01T01:00:59;10.00;;;6.33;;
10090;SDS011;5084;51.386;6.778;2023-02-01T01:03:26;10.50;;;6.23;;
10090;SDS011;5084;51.386;6.778;2023-02-01T01:05:56;8.87;;;5.60;;
10090;SDS011;5084;51.386;6.778;2023-02-01T01:08:22;15.53;;;7.10;;
10090;SDS011;5084;51.386;6.778;2023-02-01T01:10:48;7.93;;;6.10;;
10090;SDS011;5084;51.386;6.778;2023-02-01T01:13:14;13.13;;;6.20;;
10090;SDS011;5084;51.386;6.778;2023-02-01T01:15:41;20.00;;;6.13;;
10090;SDS011;5084;51.386;6.778;2023-02-01T01:18:07;16.10;;;7.53;;
10090;SDS011;5084;51.386;6.778;2023-02-01T01:20:37;14.17;;;6.63;;
10090;SDS011;5084;51.386;6.778;2023-02-01T01:23:04;14.33;;;6.73;;
10090;SDS011;5084;51.386;6.778;2023-02-01T01:25:30;13.20;;;6.50;;
10090;SDS011;5084;51.386;6.778;2023-02-01T01:27:56;11.90;;;6.33;;
10090;SDS011;5084;51.386;6.778;2023-02-01T01:30:22;12.47;;;6.73;;
10090;SDS011;5084;51.386;6.778;2023-02-01T01:32:48;10.30;;;5.60;;
10090;SDS011;5084;51.386;6.778;2023-02-01T01:35:15;10.93;;;6.00;;
10090;SDS011;5084;51.386;6.778;2023-02-01T01:37:41;10.70;;;5.77;;
10090;SDS011;5084;51.386;6.778;2023-02-01T01:40:07;8.50;;;5.93;;
10090;SDS011;5084;51.386;6.778;2023-02-01T01:42:41;7.83;;;5.13;;
10090;SDS011;5084;51.386;6.778;2023-02-01T01:47:47;8.37;;;5.27;;
10090;SDS011;5084;51.386;6.778;2023-02-01T01:50:16;9.67;;;5.60;;
10090;SDS011;5084;51.386;6.778;2023-02-01T01:52:44;10.67;;;5.20;;
10090;SDS011;5084;51.386;6.778;2023-02-01T01:55:13;9.70;;;5.03;;
10090;SDS011;5084;51.386;6.778;2023-02-01T01:57:39;9.10;;;5.03;;
10090;SDS011;5084;51.386;6.778;2023-02-01T02:00:08;12.20;;;5.27;;
10090;SDS011;5084;51.386;6.778;2023-02-01T02:02:34;9.63;;;5.07;;
10090;SDS011;5084;51.386;6.778;2023-02-01T02:05:02;11.07;;;5.33;;
10090;SDS011;5084;51.386;6.778;2023-02-01T02:07:28;12.83;;;5.23;;
10090;SDS011;5084;51.386;6.778;2023-02-01T02:09:55;9.77;;;4.80;;
10090;SDS011;5084;51.386;6.778;2023-02-01T02:12:22;7.63;;;3.93;;
10090;SDS011;5084;51.386;6.778;2023-02-01T02:14:48;12.30;;;4.53;;
10090;SDS011;5084;51.386;6.778;2023-02-01T02:22:54;8.03;;;4.00;;
10090;SDS011;5084;51.386;6.778;2023-02-01T02:41:13;8.27;;;3.70;;
10090;SDS011;5084;51.386;6.778;2023-02-01T02:44:01;11.27;;;3.87;;
10090;SDS011;5084;51.386;6.778;2023-02-01T02:46:48;9.03;;;3.17;;
10090;SDS011;5084;51.386;6.778;2023-02-01T02:49:36;8.93;;;3.40;;
10090;SDS011;5084;51.386;6.778;2023-02-01T02:52:06;8.73;;;4.00;;
10090;SDS011;5084;51.386;6.778;2023-02-01T02:54:54;9.90;;;3.43;;
10090;SDS011;5084;51.386;6.778;2023-02-01T02:57:22;10.77;;;3.53;;
10090;SDS011;5084;51.386;6.778;2023-02-01T03:00:10;8.47;;;3.83;;
10090;SDS011;5084;51.386;6.778;2023-02-01T03:02:56;11.37;;;3.53;;
10090;SDS011;5084;51.386;6.778;2023-02-01T03:05:43;10.97;;;4.30;;
10090;SDS011;5084;51.386;6.778;2023-02-01T03:10:40;7.63;;;2.90;;
10090;SDS011;5084;51.386;6.778;2023-02-01T03:13:31;8.57;;;3.33;;
10090;SDS011;5084;51.386;6.778;2023-02-01T03:21:02;8.20;;;2.87;;
10090;SDS011;5084;51.386;6.778;2023-02-01T03:23:30;6.07;;;3.37;;
10090;SDS011;5084;51.386;6.778;2023-02-01T03:25:59;9.87;;;3.37;;
10090;SDS011;5084;51.386;6.778;2023-02-01T03:28:26;8.07;;;3.87;;
10090;SDS011;5084;51.386;6.778;2023-02-01T03:30:53;10.53;;;3.93;;
10090;SDS011;5084;51.386;6.778;2023-02-01T03:33:21;7.57;;;3.17;;
10090;SDS011;5084;51.386;6.778;2023-02-01T03:36:00;9.10;;;3.77;;
10090;SDS011;5084;51.386;6.778;2023-02-01T03:38:32;10.60;;;4.00;;
10090;SDS011;5084;51.386;6.778;2023-02-01T03:41:05;8.70;;;3.87;;
10090;SDS011;5084;51.386;6.778;2023-02-01T03:43:36;6.87;;;3.57;;
10090;SDS011;5084;51.386;6.778;2023-02-01T03:46:05;5.90;;;3.00;;
10090;SDS011;5084;51.386;6.778;2023-02-01T03:48:33;9.63;;;3.40;;
10090;SDS011;5084;51.386;6.778;2023-02-01T03:51:00;14.07;;;4.57;;
10090;SDS011;5084;51.386;6.778;2023-02-01T03:53:27;9.97;;;3.53;;
10090;SDS011;5084;51.386;6.778;2023-02-01T03:55:54;9.63;;;4.13;;
10090;SDS011;5084;51.386;6.778;2023-02-01T03:58:22;9.30;;;3.77;;
10090;SDS011;5084;51.386;6.778;2023-02-01T04:00:55;7.90;;;3.80;;
10090;SDS011;5084;51.386;6.778;2023-02-01T04:03:22;7.40;;;4.47;;
10090;SDS011;5084;51.386;6.778;2023-02-01T04:05:48;10.50;;;3.80;;
10090;SDS011;5084;51.386;6.778;2023-02-01T04:08:15;9.87;;;3.53;;
10090;SDS011;5084;51.386;6.778;2023-02-01T04:10:41;6.50;;;3.83;;
10090;SDS011;5084;51.386;6.778;2023-02-01T04:13:07;9.07;;;3.77;;
10090;SDS011;5084;51.386;6.778;2023-02-01T04:15:33;8.43;;;3.40;;
10090;SDS011;5084;51.386;6.778;2023-02-01T04:17:59;9.13;;;3.70;;
10090;SDS011;5084;51.386;6.778;2023-02-01T04:20:25;10.93;;;3.80;;
10090;SDS011;5084;51.386;6.778;2023-02-01T04:22:52;9.30;;;4.13;;
10090;SDS011;5084;51.386;6.778;2023-02-01T04:25:18;6.70;;;3.70;;
10090;SDS011;5084;51.386;6.778;2023-02-01T04:27:44;11.23;;;3.87;;
10090;SDS011;5084;51.386;6.778;2023-02-01T04:30:10;8.87;;;3.47;;
10090;SDS011;5084;51.386;6.778;2023-02-01T04:32:37;8.67;;;3.50;;
10090;SDS011;5084;51.386;6.778;2023-02-01T04:35:03;10.33;;;3.83;;
10090;SDS011;5084;51.386;6.778;2023-02-01T04:37:30;8.20;;;3.93;;
10090;SDS011;5084;51.386;6.778;2023-02-01T04:39:56;12.53;;;3.73;;
10090;SDS011;5084;51.386;6.778;2023-02-01T04:42:22;12.63;;;3.93;;
10090;SDS011;5084;51.386;6.778;2023-02-01T04:44:48;8.87;;;4.27;;
10090;SDS011;5084;51.386;6.778;2023-02-01T04:47:14;15.20;;;5.53;;
10090;SDS011;5084;51.386;6.778;2023-02-01T04:49:40;10.20;;;4.17;;
10090;SDS011;5084;51.386;6.778;2023-02-01T04:52:07;9.00;;;3.40;;
10090;SDS011;5084;51.386;6.778;2023-02-01T04:54:33;10.50;;;4.47;;
10090;SDS011;5084;51.386;6.778;2023-02-01T04:56:59;11.30;;;4.07;;
10090;SDS011;5084;51.386;6.778;2023-02-01T04:59:26;11.93;;;3.67;;
10090;SDS011;5084;51.386;6.778;2023-02-01T05:01:53;11.63;;;4.07;;
10090;SDS011;5084;51.386;6.778;2023-02-01T05:04:19;10.67;;;4.60;;
10090;SDS011;5084;51.386;6.778;2023-02-01T05:06:45;10.67;;;3.80;;
10090;SDS011;5084;51.386;6.778;2023-02-01T05:09:11;9.93;;;3.53;;
10090;SDS011;5084;51.386;6.778;2023-02-01T05:11:37;11.67;;;4.97;;
10090;SDS011;5084;51.386;6.778;2023-02-01T05:14:22;8.57;;;3.63;;
10090;SDS011;5084;51.386;6.778;2023-02-01T05:16:48;9.80;;;3.87;;
10090;SDS011;5084;51.386;6.778;2023-02-01T05:19:14;10.03;;;3.83;;
10090;SDS011;5084;51.386;6.778;2023-02-01T05:21:40;9.03;;;3.60;;
10090;SDS011;5084;51.386;6.778;2023-02-01T05:24:07;10.37;;;4.07;;
10090;SDS011;5084;51.386;6.778;2023-02-01T05:26:44;8.17;;;3.10;;
10090;SDS011;5084;51.386;6.778;2023-02-01T05:29:10;12.03;;;4.07;;
10090;SDS011;5084;51.386;6.778;2023-02-01T05:31:37;11.20;;;3.80;;
10090;SDS011;5084;51.386;6.778;2023-02-01T05:34:03;12.53;;;3.93;;
10090;SDS011;5084;51.386;6.778;2023-02-01T05:36:29;11.63;;;3.53;;
10090;SDS011;5084;51.386;6.778;2023-02-01T05:38:56;8.63;;;3.93;;
10090;SDS011;5084;51.386;6.778;2023-02-01T05:41:22;10.90;;;3.47;;
10090;SDS011;5084;51.386;6.778;2023-02-01T05:43:48;14.77;;;3.60;;
10090;SDS011;5084;51.386;6.778;2023-02-01T05:46:14;10.60;;;4.13;;
10090;SDS011;5084;51.386;6.778;2023-02-01T05:48:40;9.93;;;4.00;;
10090;SDS011;5084;51.386;6.778;2023-02-01T05:51:06;13.87;;;4.30;;
10090;SDS011;5084;51.386;6.778;2023-02-01T05:53:32;13.13;;;3.87;;
10090;SDS011;5084;51.386;6.778;2023-02-01T05:55:58;13.27;;;3.43;;
10090;SDS011;5084;51.386;6.778;2023-02-01T05:58:25;8.63;;;3.47;;
10090;SDS011;5084;51.386;6.778;2023-02-01T06:00:51;13.07;;;4.10;;
10090;SDS011;5084;51.386;6.778;2023-02-01T06:03:17;11.57;;;4.67;;
10090;SDS011;5084;51.386;6.778;2023-02-01T06:05:44;8.83;;;4.33;;
10090;SDS011;5084;51.386;6.778;2023-02-01T06:08:10;13.77;;;4.53;;
10090;SDS011;5084;51.386;6.778;2023-02-01T06:10:36;7.53;;;3.63;;
10090;SDS011;5084;51.386;6.778;2023-02-01T06:13:02;9.43;;;3.00;;
10090;SDS011;5084;51.386;6.778;2023-02-01T06:15:29;9.07;;;3.33;;
10090;SDS011;5084;51.386;6.778;2023-02-01T06:17:55;12.17;;;3.63;;
10090;SDS011;5084;51.386;6.778;2023-02-01T06:20:24;9.63;;;3.10;;
10090;SDS011;5084;51.386;6.778;2023-02-01T06:22:50;9.37;;;3.60;;
10090;SDS011;5084;51.386;6.778;2023-02-01T06:25:17;10.53;;;4.50;;
10090;SDS011;5084;51.386;6.778;2023-02-01T06:27:44;16.50;;;6.13;;
10090;SDS011;5084;51.386;6.778;2023-02-01T06:30:10;11.73;;;3.67;;
10090;SDS011;5084;51.386;6.778;2023-02-01T06:32:40;14.67;;;4.80;;
10090;SDS011;5084;51.386;6.778;2023-02-01T06:35:09;11.70;;;4.20;;
10090;SDS011;5084;51.386;6.778;2023-02-01T06:37:41;12.57;;;4.03;;
10090;SDS011;5084;51.386;6.778;2023-02-01T06:40:08;16.37;;;4.93;;
10090;SDS011;5084;51.386;6.778;2023-02-01T06:42:34;9.83;;;4.40;;
10090;SDS011;5084;51.386;6.778;2023-02-01T06:45:00;8.43;;;4.07;;
10090;SDS011;5084;51.386;6.778;2023-02-01T06:47:26;10.03;;;3.93;;
10090;SDS011;5084;51.386;6.778;2023-02-01T06:49:52;11.37;;;3.40;;
10090;SDS011;5084;51.386;6.778;2023-02-01T06:52:18;12.97;;;3.67;;
10090;SDS011;5084;51.386;6.778;2023-02-01T06:54:44;9.23;;;3.70;;
10090;SDS011;5084;51.386;6.778;2023-02-01T06:57:10;15.87;;;4.57;;
10090;SDS011;5084;51.386;6.778;2023-02-01T06:59:36;10.80;;;3.83;;
10090;SDS011;5084;51.386;6.778;2023-02-01T07:02:02;8.90;;;3.90;;
10090;SDS011;5084;51.386;6.778;2023-02-01T07:04:28;6.67;;;3.03;;
10090;SDS011;5084;51.386;6.778;2023-02-01T07:06:55;8.43;;;3.53;;
10090;SDS011;5084;51.386;6.778;2023-02-01T07:09:21;7.30;;;3.10;;
10090;SDS011;5084;51.386;6.778;2023-02-01T07:11:47;10.80;;;4.13;;
10090;SDS011;5084;51.386;6.778;2023-02-01T07:14:13;8.27;;;3.27;;
10090;SDS011;5084;51.386;6.778;2023-02-01T07:16:39;8.53;;;3.30;;
10090;SDS011;5084;51.386;6.778;2023-02-01T07:19:05;15.23;;;3.47;;
10090;SDS011;5084;51.386;6.778;2023-02-01T07:21:31;14.30;;;4.23;;
10090;SDS011;5084;51.386;6.778;2023-02-01T07:23:57;13.90;;;4.30;;
10090;SDS011;5084;51.386;6.778;2023-02-01T07:26:24;12.07;;;3.97;;
10090;SDS011;5084;51.386;6.778;2023-02-01T07:28:50;10.33;;;3.30;;
10090;SDS011;5084;51.386;6.778;2023-02-01T07:31:17;7.77;;;3.30;;
10090;SDS011;5084;51.386;6.778;2023-02-01T07:33:45;8.57;;;3.70;;
10090;SDS011;5084;51.386;6.778;2023-02-01T07:36:12;13.20;;;4.20;;
10090;SDS011;5084;51.386;6.778;2023-02-01T07:38:39;13.33;;;4.70;;
10090;SDS011;5084;51.386;6.778;2023-02-01T07:41:05;9.60;;;3.03;;
10090;SDS011;5084;51.386;6.778;2023-02-01T07:43:32;14.00;;;3.33;;
10090;SDS011;5084;51.386;6.778;2023-02-01T07:45:59;12.60;;;4.23;;
10090;SDS011;5084;51.386;6.778;2023-02-01T07:48:25;8.60;;;3.43;;
10090;SDS011;5084;51.386;6.778;2023-02-01T07:51:11;11.57;;;3.77;;
10090;SDS011;5084;51.386;6.778;2023-02-01T07:53:38;12.83;;;3.83;;
10090;SDS011;5084;51.386;6.778;2023-02-01T07:56:09;11.67;;;3.90;;
10090;SDS011;5084;51.386;6.778;2023-02-01T07:58:36;12.63;;;3.97;;
10090;SDS011;5084;51.386;6.778;2023-02-01T08:01:02;13.37;;;3.47;;
10090;SDS011;5084;51.386;6.778;2023-02-01T08:03:58;11.63;;;3.43;;
10090;SDS011;5084;51.386;6.778;2023-02-01T08:06:24;9.60;;;3.03;;
10090;SDS011;5084;51.386;6.778;2023-02-01T08:08:51;12.00;;;3.67;;
10090;SDS011;5084;51.386;6.778;2023-02-01T08:11:18;12.20;;;4.37;;
10090;SDS011;5084;51.386;6.778;2023-02-01T08:13:44;13.20;;;3.90;;
10090;SDS011;5084;51.386;6.778;2023-02-01T08:16:11;8.47;;;3.37;;
10090;SDS011;5084;51.386;6.778;2023-02-01T08:18:38;8.10;;;3.43;;
10090;SDS011;5084;51.386;6.778;2023-02-01T08:21:05;8.73;;;3.90;;
10090;SDS011;5084;51.386;6.778;2023-02-01T08:23:32;12.43;;;4.07;;
10090;SDS011;5084;51.386;6.778;2023-02-01T08:28:36;8.93;;;3.53;;
10090;SDS011;5084;51.386;6.778;2023-02-01T08:31:06;9.70;;;4.43;;
10090;SDS011;5084;51.386;6.778;2023-02-01T08:33:33;11.23;;;3.50;;
10090;SDS011;5084;51.386;6.778;2023-02-01T08:36:01;7.47;;;2.93;;
10090;SDS011;5084;51.386;6.778;2023-02-01T08:38:27;9.70;;;4.50;;
10090;SDS011;5084;51.386;6.778;2023-02-01T08:40:53;17.93;;;5.00;;
10090;SDS011;5084;51.386;6.778;2023-02-01T08:43:19;12.33;;;4.13;;
10090;SDS011;5084;51.386;6.778;2023-02-01T08:45:45;9.57;;;4.00;;
10090;SDS011;5084;51.386;6.778;2023-02-01T08:48:11;9.60;;;3.93;;
10090;SDS011;5084;51.386;6.778;2023-02-01T08:50:37;11.97;;;4.40;;
10090;SDS011;5084;51.386;6.778;2023-02-01T08:53:03;11.27;;;4.57;;
10090;SDS011;5084;51.386;6.778;2023-02-01T08:55:29;11.50;;;4.47;;
10090;SDS011;5084;51.386;6.778;2023-02-01T08:57:55;12.93;;;4.77;;
10090;SDS011;5084;51.386;6.778;2023-02-01T09:00:21;15.47;;;4.20;;
10090;SDS011;5084;51.386;6.778;2023-02-01T09:02:47;10.30;;;3.63;;
10090;SDS011;5084;51.386;6.778;2023-02-01T09:05:13;12.93;;;4.13;;
10090;SDS011;5084;51.386;6.778;2023-02-01T09:07:41;12.77;;;3.40;;
10090;SDS011;5084;51.386;6.778;2023-02-01T09:10:07;16.60;;;4.33;;
10090;SDS011;5084;51.386;6.778;2023-02-01T09:12:34;10.50;;;3.60;;
10090;SDS011;5084;51.386;6.778;2023-02-01T09:15:01;16.47;;;4.43;;
10090;SDS011;5084;51.386;6.778;2023-02-01T09:17:27;9.47;;;3.73;;
10090;SDS011;5084;51.386;6.778;2023-02-01T09:19:54;11.40;;;3.87;;
10090;SDS011;5084;51.386;6.778;2023-02-01T09:22:20;10.17;;;3.60;;
10090;SDS011;5084;51.386;6.778;2023-02-01T09:24:46;11.30;;;3.33;;
10090;SDS011;5084;51.386;6.778;2023-02-01T09:27:12;7.10;;;2.97;;
10090;SDS011;5084;51.386;6.778;2023-02-01T09:29:38;10.17;;;3.57;;
10090;SDS011;5084;51.386;6.778;2023-02-01T09:32:04;14.07;;;4.50;;
10090;SDS011;5084;51.386;6.778;2023-02-01T09:34:31;11.97;;;4.93;;
10090;SDS011;5084;51.386;6.778;2023-02-01T09:36:58;12.57;;;3.90;;
10090;SDS011;5084;51.386;6.778;2023-02-01T09:39:24;13.77;;;4.43;;
10090;SDS011;5084;51.386;6.778;2023-02-01T09:44:23;9.47;;;3.83;;
10090;SDS011;5084;51.386;6.778;2023-02-01T09:46:56;11.37;;;4.33;;
10090;SDS011;5084;51.386;6.778;2023-02-01T09:49:35;14.43;;;4.20;;
10090;SDS011;5084;51.386;6.778;2023-02-01T09:52:07;9.30;;;4.00;;
10090;SDS011;5084;51.386;6.778;2023-02-01T09:54:42;12.60;;;4.27;;
10090;SDS011;5084;51.386;6.778;2023-02-01T09:59:41;13.87;;;5.53;;
10090;SDS011;5084;51.386;6.778;2023-02-01T10:02:14;9.53;;;3.93;;
10090;SDS011;5084;51.386;6.778;2023-02-01T10:04:41;13.67;;;5.13;;
10090;SDS011;5084;51.386;6.778;2023-02-01T10:15:11;8.97;;;4.17;;
10090;SDS011;5084;51.386;6.778;2023-02-01T10:25:55;10.47;;;4.30;;
10090;SDS011;5084;51.386;6.778;2023-02-01T10:28:22;11.07;;;3.63;;
10090;SDS011;5084;51.386;6.778;2023-02-01T10:30:50;10.70;;;4.53;;
10090;SDS011;5084;51.386;6.778;2023-02-01T10:33:21;10.77;;;3.80;;
10090;SDS011;5084;51.386;6.778;2023-02-01T10:35:52;9.50;;;4.53;;
10090;SDS011;5084;51.386;6.778;2023-02-01T10:38:22;11.67;;;4.17;;
10090;SDS011;5084;51.386;6.778;2023-02-01T10:40:51;9.90;;;5.40;;
10090;SDS011;5084;51.386;6.778;2023-02-01T10:43:17;12.10;;;4.90;;
10090;SDS011;5084;51.386;6.778;2023-02-01T10:45:43;11.50;;;4.43;;
10090;SDS011;5084;51.386;6.778;2023-02-01T10:48:09;14.93;;;4.70;;
10090;SDS011;5084;51.386;6.778;2023-02-01T10:50:56;13.63;;;5.07;;
10090;SDS011;5084;51.386;6.778;2023-02-01T10:56:06;6.63;;;3.77;;
10090;SDS011;5084;51.386;6.778;2023-02-01T10:58:32;10.30;;;3.63;;
10090;SDS011;5084;51.386;6.778;2023-02-01T11:01:17;12.37;;;4.20;;
10090;SDS011;5084;51.386;6.778;2023-02-01T11:06:33;11.60;;;3.70;;
10090;SDS011;5084;51.386;6.778;2023-02-01T11:08:59;9.53;;;3.90;;
10090;SDS011;5084;51.386;6.778;2023-02-01T11:11:26;13.53;;;4.70;;
10090;SDS011;5084;51.386;6.778;2023-02-01T11:13:57;10.30;;;3.40;;
10090;SDS011;5084;51.386;6.778;2023-02-01T11:16:28;9.13;;;3.93;;
10090;SDS011;5084;51.386;6.778;2023-02-01T11:18:55;13.40;;;4.97;;
10090;SDS011;5084;51.386;6.778;2023-02-01T11:21:21;11.50;;;3.63;;
10090;SDS011;5084;51.386;6.778;2023-02-01T11:23:47;10.10;;;3.63;;
10090;SDS011;5084;51.386;6.778;2023-02-01T11:26:15;15.13;;;4.27;;
10090;SDS011;5084;51.386;6.778;2023-02-01T11:28:59;10.30;;;4.37;;
10090;SDS011;5084;51.386;6.778;2023-02-01T11:31:27;10.20;;;4.23;;
10090;SDS011;5084;51.386;6.778;2023-02-01T11:33:55;7.73;;;3.83;;
10090;SDS011;5084;51.386;6.778;2023-02-01T11:36:24;14.10;;;4.37;;
10090;SDS011;5084;51.386;6.778;2023-02-01T11:38:53;9.67;;;3.73;;
10090;SDS011;5084;51.386;6.778;2023-02-01T11:41:24;12.67;;;3.77;;
10090;SDS011;5084;51.386;6.778;2023-02-01T11:46:21;16.33;;;5.10;;
10090;SDS011;5084;51.386;6.778;2023-02-01T11:48:50;10.67;;;3.30;;
10090;SDS011;5084;51.386;6.778;2023-02-01T12:01:40;9.43;;;3.63;;
10090;SDS011;5084;51.386;6.778;2023-02-01T12:12:08;10.07;;;3.97;;
10090;SDS011;5084;51.386;6.778;2023-02-01T12:18:08;11.10;;;3.90;;
10090;SDS011;5084;51.386;6.778;2023-02-01T12:23:06;8.87;;;3.77;;
10090;SDS011;5084;51.386;6.778;2023-02-01T12:28:30;11.17;;;3.67;;
10090;SDS011;5084;51.386;6.778;2023-02-01T12:31:06;9.03;;;3.57;;
10090;SDS011;5084;51.386;6.778;2023-02-01T12:41:08;9.23;;;3.90;;
10090;SDS011;5084;51.386;6.778;2023-02-01T12:46:33;7.67;;;3.23;;
10090;SDS011;5084;51.386;6.778;2023-02-01T12:51:37;7.77;;;2.97;;
10090;SDS011;5084;51.386;6.778;2023-02-01T12:56:32;9.53;;;4.03;;
10090;SDS011;5084;51.386;6.778;2023-02-01T12:59:01;11.70;;;3.40;;
10090;SDS011;5084;51.386;6.778;2023-02-01T13:01:31;12.10;;;3.20;;
10090;SDS011;5084;51.386;6.778;2023-02-01T13:04:05;7.73;;;3.00;;
10090;SDS011;5084;51.386;6.778;2023-02-01T13:06:41;11.17;;;3.80;;
10090;SDS011;5084;51.386;6.778;2023-02-01T13:11:47;8.30;;;3.40;;
10090;SDS011;5084;51.386;6.778;2023-02-01T13:14:24;10.53;;;3.57;;
10090;SDS011;5084;51.386;6.778;2023-02-01T13:16:52;10.97;;;3.20;;
10090;SDS011;5084;51.386;6.778;2023-02-01T13:19:23;9.00;;;3.37;;
10090;SDS011;5084;51.386;6.778;2023-02-01T13:21:55;8.53;;;3.40;;
10090;SDS011;5084;51.386;6.778;2023-02-01T13:26:57;8.80;;;2.90;;
10090;SDS011;5084;51.386;6.778;2023-02-01T13:29:23;10.40;;;3.30;;
10090;SDS011;5084;51.386;6.778;2023-02-01T13:34:41;8.23;;;3.70;;
10090;SDS011;5084;51.386;6.778;2023-02-01T13:42:34;4.63;;;2.27;;
10090;SDS011;5084;51.386;6.778;2023-02-01T13:45:03;8.43;;;2.40;;
10090;SDS011;5084;51.386;6.778;2023-02-01T13:47:34;7.83;;;2.70;;
10090;SDS011;5084;51.386;6.778;2023-02-01T13:50:03;7.87;;;3.23;;
10090;SDS011;5084;51.386;6.778;2023-02-01T13:52:42;7.23;;;2.53;;
10090;SDS011;5084;51.386;6.778;2023-02-01T13:57:48;7.83;;;3.20;;
10090;SDS011;5084;51.386;6.778;2023-02-01T14:00:28;8.63;;;2.60;;
10090;SDS011;5084;51.386;6.778;2023-02-01T14:10:47;5.60;;;3.23;;
10090;SDS011;5084;51.386;6.778;2023-02-01T14:26:26;11.63;;;3.13;;
10090;SDS011;5084;51.386;6.778;2023-02-01T14:31:31;8.43;;;2.43;;
10090;SDS011;5084;51.386;6.778;2023-02-01T14:33:58;7.63;;;2.33;;
10090;SDS011;5084;51.386;6.778;2023-02-01T14:36:24;8.90;;;3.40;;
10090;SDS011;5084;51.386;6.778;2023-02-01T14:38:51;8.20;;;2.73;;
10090;SDS011;5084;51.386;6.778;2023-02-01T14:41:24;16.20;;;3.50;;
10090;SDS011;5084;51.386;6.778;2023-02-01T14:49:09;11.37;;;3.30;;
10090;SDS011;5084;51.386;6.778;2023-02-01T14:51:35;7.83;;;2.93;;
10090;SDS011;5084;51.386;6.778;2023-02-01T14:54:02;12.47;;;3.10;;
10090;SDS011;5084;51.386;6.778;2023-02-01T14:56:28;7.87;;;2.50;;
10090;SDS011;5084;51.386;6.778;2023-02-01T14:59:00;6.23;;;2.53;;
10090;SDS011;5084;51.386;6.778;2023-02-01T15:01:33;9.13;;;2.37;;
10090;SDS011;5084;51.386;6.778;2023-02-01T15:04:13;8.30;;;2.80;;
10090;SDS011;5084;51.386;6.778;2023-02-01T15:09:21;7.70;;;2.97;;
10090;SDS011;5084;51.386;6.778;2023-02-01T15:14:19;8.20;;;2.60;;
10090;SDS011;5084;51.386;6.778;2023-02-01T15:16:45;6.47;;;2.60;;
10090;SDS011;5084;51.386;6.778;2023-02-01T15:19:24;8.20;;;2.90;;
10090;SDS011;5084;51.386;6.778;2023-02-01T15:21:52;9.00;;;3.27;;
10090;SDS011;5084;51.386;6.778;2023-02-01T15:24:23;9.10;;;2.40;;
10090;SDS011;5084;51.386;6.778;2023-02-01T15:26:50;14.33;;;2.93;;
10090;SDS011;5084;51.386;6.778;2023-02-01T15:29:16;12.73;;;3.27;;
10090;SDS011;5084;51.386;6.778;2023-02-01T15:31:47;8.10;;;2.47;;
10090;SDS011;5084;51.386;6.778;2023-02-01T15:34:14;7.43;;;3.23;;
10090;SDS011;5084;51.386;6.778;2023-02-01T15:36:40;8.57;;;2.87;;
10090;SDS011;5084;51.386;6.778;2023-02-01T15:39:14;7.37;;;2.73;;
10090;SDS011;5084;51.386;6.778;2023-02-01T15:41:55;7.67;;;3.17;;
10090;SDS011;5084;51.386;6.778;2023-02-01T15:44:38;6.90;;;2.67;;
10090;SDS011;5084;51.386;6.778;2023-02-01T15:47:07;10.23;;;3.33;;
10090;SDS011;5084;51.386;6.778;2023-02-01T15:49:38;9.20;;;3.47;;
10090;SDS011;5084;51.386;6.778;2023-02-01T15:52:16;13.50;;;3.03;;
10090;SDS011;5084;51.386;6.778;2023-02-01T15:54:45;8.77;;;3.57;;
10090;SDS011;5084;51.386;6.778;2023-02-01T15:57:14;7.57;;;2.67;;
10090;SDS011;5084;51.386;6.778;2023-02-01T15:59:44;9.43;;;3.17;;
10090;SDS011;5084;51.386;6.778;2023-02-01T16:02:28;9.10;;;3.17;;
10090;SDS011;5084;51.386;6.778;2023-02-01T16:04:58;9.80;;;3.30;;
10090;SDS011;5084;51.386;6.778;2023-02-01T16:07:25;7.47;;;2.37;;
10090;SDS011;5084;51.386;6.778;2023-02-01T16:09:53;7.43;;;3.17;;
10090;SDS011;5084;51.386;6.778;2023-02-01T16:13:04;11.60;;;2.80;;
10090;SDS011;5084;51.386;6.778;2023-02-01T16:15:06;6.77;;;2.97;;
10090;SDS011;5084;51.386;6.778;2023-02-01T16:17:32;10.93;;;3.70;;
10090;SDS011;5084;51.386;6.778;2023-02-01T16:19:58;9.50;;;4.30;;
10090;SDS011;5084;51.386;6.778;2023-02-01T16:22:24;11.57;;;3.50;;
10090;SDS011;5084;51.386;6.778;2023-02-01T16:24:50;9.37;;;2.87;;
10090;SDS011;5084;51.386;6.778;2023-02-01T16:27:16;6.60;;;3.47;;
10090;SDS011;5084;51.386;6.778;2023-02-01T16:29:42;12.47;;;3.23;;
10090;SDS011;5084;51.386;6.778;2023-02-01T16:32:20;9.53;;;3.50;;
10090;SDS011;5084;51.386;6.778;2023-02-01T16:34:46;13.23;;;3.20;;
10090;SDS011;5084;51.386;6.778;2023-02-01T16:37:13;9.67;;;3.77;;
10090;SDS011;5084;51.386;6.778;2023-02-01T16:39:40;9.27;;;3.20;;
10090;SDS011;5084;51.386;6.778;2023-02-01T16:42:13;8.23;;;2.97;;
10090;SDS011;5084;51.386;6.778;2023-02-01T16:44:39;10.07;;;3.50;;
10090;SDS011;5084;51.386;6.778;2023-02-01T16:47:16;9.53;;;3.73;;
10090;SDS011;5084;51.386;6.778;2023-02-01T16:49:42;9.60;;;3.00;;
10090;SDS011;5084;51.386;6.778;2023-02-01T16:52:11;12.30;;;3.67;;
10090;SDS011;5084;51.386;6.778;2023-02-01T16:54:39;9.23;;;3.33;;
10090;SDS011;5084;51.386;6.778;2023-02-01T16:57:05;12.30;;;3.97;;
10090;SDS011;5084;51.386;6.778;2023-02-01T16:59:31;7.17;;;3.20;;
10090;SDS011;5084;51.386;6.778;2023-02-01T17:01:57;9.57;;;3.37;;
10090;SDS011;5084;51.386;6.778;2023-02-01T17:04:23;14.07;;;4.00;;
10090;SDS011;5084;51.386;6.778;2023-02-01T17:06:49;11.83;;;3.70;;
10090;SDS011;5084;51.386;6.778;2023-02-01T17:09:15;12.83;;;3.90;;
10090;SDS011;5084;51.386;6.778;2023-02-01T17:11:41;10.00;;;3.27;;
10090;SDS011;5084;51.386;6.778;2023-02-01T17:14:17;6.40;;;3.00;;
10090;SDS011;5084;51.386;6.778;2023-02-01T17:16:44;9.23;;;3.33;;
10090;SDS011;5084;51.386;6.778;2023-02-01T17:19:12;8.07;;;2.77;;
10090;SDS011;5084;51.386;6.778;2023-02-01T17:21:47;8.00;;;3.00;;
10090;SDS011;5084;51.386;6.778;2023-02-01T17:24:16;10.43;;;3.00;;
10090;SDS011;5084;51.386;6.778;2023-02-01T17:26:42;8.03;;;3.53;;
10090;SDS011;5084;51.386;6.778;2023-02-01T17:29:09;7.57;;;3.17;;
10090;SDS011;5084;51.386;6.778;2023-02-01T17:31:36;8.87;;;3.03;;
10090;SDS011;5084;51.386;6.778;2023-02-01T17:34:03;9.80;;;3.77;;
10090;SDS011;5084;51.386;6.778;2023-02-01T17:36:29;10.70;;;3.17;;
10090;SDS011;5084;51.386;6.778;2023-02-01T17:38:55;9.57;;;3.57;;
10090;SDS011;5084;51.386;6.778;2023-02-01T17:41:21;15.90;;;4.50;;